To NAV CANADA Home Page Login to a new session Search on AWWS site Feedback and Comments Disclaimer Vers la page française équivalente Tips FAQ What's new on the site To the Forecasts and Observations / NOTAM section To "File a Flight Plan" website Publications and other links Update of the User's profile FIC Telephone Numbers My Weather Data Folder Route Weather Data Regional Weather Data Local Weather Data To the Forecasts and Observations / NOTAM section
Request Generated 07/26/2017 at 04:34:23 UTC . Weather information available at that time is displayed.


Go to a specific product

Save this request

NOTAM

NOTAM


SIGMET
To the Product Selector

SIGMETS GFACN32

WSCN32 CWEG 260008
SIGMET L1 VALID 260005/260235 CWEG-
CZWG WINNIPEG FIR CNCL SIGMET L3 252235/260235
RMK GFACN32 GFACN33
END/WSCN23/CWAO

WSCN32 CWEG 260051
SIGMET N1 VALID 260050/260315 CWEG-
CZWG WINNIPEG FIR CNCL SIGMET N2 252315/260315
RMK GFACN32 GFACN33
END/WSCN23/CWAO



AIRMET
To the Product Selector

AIRMETS GFACN32

GFACN32 - No AIRMET bulletins in effect



PIREP
To the Product Selector

FIR_WINNIPEG (WG)

WG - PIREP not available



METAR/TAF
To the Product Selector

REGINA INTL/SK    

METAR CYQR 260400Z 33005KT 10SM FEW060 17/11 A3006 RMK SC1 SC TR HZ
SLP186 DENSITY ALT 2400FT=
METAR CYQR 260300Z 33005KT 15SM FEW060 FEW300 19/11 A3004 RMK SC1CI1
SC TR CI TR VIS W 4 HZ SLP180 DENSITY ALT 2700FT=
METAR CYQR 260200Z 32006KT 15SM FEW060 FEW300 23/12 A3002 RMK SC1CI1
SC TR CI TR SLP172 DENSITY ALT 3200FT=

TAF CYQR 252352Z 2600/2624 32015G25KT P6SM FEW060
FM260300 33008KT P6SM SKC
BECMG 2605/2607 VRB03KT
FM261700 28008KT P6SM FEW080
RMK NXT FCST BY 260600Z=

MOOSE JAW/AIR VICE MARSHAL C.M. MCEWEN/SK    

CYMJ - METAR not available

TAF AMD CYMJ 260024Z 2600/2612 FCST CNCLD DUE END OF FLYING PROGRAM
RMK NXT FCST WILL BE ISSUED AT 261115Z=


RADAR PCPN RATE
To the Product Selector
Pacific Canada      Western Canada     

SATELLITE VISIBLE
To the Product Selector
West Canada      

SATELLITE INFRARED
To the Product Selector
West Canada     

GRAPHICAL FA CLOUDS & WEATHER FORECASTS
To the Product Selector
Graphical FA gfacn32      

GRAPHICAL FA ICING, TURBULENCE & FREEZING LEVEL FORECASTS
To the Product Selector
Graphical FA gfacn32      

FDTEXT Low Level FD. Temperatures are not forecast for the 3,000-foot level.
To the Product Selector
STN YQR - REGINA. SASK for use 3000 6000 9000 12000 18000
FDCN01 CWAO FCST BASED ON 260000 DATA VALID 260600 05-09 3010+11 2916+05 3021+01 2821-10
FDCN02 CWAO FCST BASED ON 260000 DATA VALID 261200 09-18 3114+11 2922+05 2921+01 2823-11
FDCN03 CWAO FCST BASED ON 260000 DATA VALID 270000 18-05 9900+16 2711+07 2826+01 2925-12



Your time UTC time
Weather data provided by Environment Canada and NAV CANADA